sensor_id;sensor_type;location;lat;lon;timestamp;P1;durP1;ratioP1;P2;durP2;ratioP2
38208;SDS011;24016;52.102;11.584;2024-02-21T00:02:19;13.73;;;4.18;;
38208;SDS011;24016;52.102;11.584;2024-02-21T00:04:44;12.95;;;3.83;;
38208;SDS011;24016;52.102;11.584;2024-02-21T00:07:10;13.43;;;4.05;;
38208;SDS011;24016;52.102;11.584;2024-02-21T00:09:36;11.73;;;3.58;;
38208;SDS011;24016;52.102;11.584;2024-02-21T00:12:01;12.07;;;3.55;;
38208;SDS011;24016;52.102;11.584;2024-02-21T00:14:28;11.27;;;3.65;;
38208;SDS011;24016;52.102;11.584;2024-02-21T00:16:53;10.70;;;3.53;;
38208;SDS011;24016;52.102;11.584;2024-02-21T00:19:19;9.07;;;3.90;;
38208;SDS011;24016;52.102;11.584;2024-02-21T00:21:44;10.43;;;4.13;;
38208;SDS011;24016;52.102;11.584;2024-02-21T00:24:09;11.88;;;4.10;;
38208;SDS011;24016;52.102;11.584;2024-02-21T00:26:35;11.07;;;3.75;;
38208;SDS011;24016;52.102;11.584;2024-02-21T00:29:01;11.00;;;3.92;;
38208;SDS011;24016;52.102;11.584;2024-02-21T00:31:26;15.93;;;4.30;;
38208;SDS011;24016;52.102;11.584;2024-02-21T00:33:52;14.50;;;4.82;;
38208;SDS011;24016;52.102;11.584;2024-02-21T00:36:17;17.73;;;4.97;;
38208;SDS011;24016;52.102;11.584;2024-02-21T00:38:43;13.82;;;4.40;;
38208;SDS011;24016;52.102;11.584;2024-02-21T00:41:09;13.07;;;5.07;;
38208;SDS011;24016;52.102;11.584;2024-02-21T00:43:35;12.93;;;4.68;;
38208;SDS011;24016;52.102;11.584;2024-02-21T00:46:00;13.40;;;4.55;;
38208;SDS011;24016;52.102;11.584;2024-02-21T00:48:26;15.57;;;5.00;;
38208;SDS011;24016;52.102;11.584;2024-02-21T00:50:51;16.90;;;5.47;;
38208;SDS011;24016;52.102;11.584;2024-02-21T00:53:17;15.73;;;5.63;;
38208;SDS011;24016;52.102;11.584;2024-02-21T00:55:42;25.55;;;6.20;;
38208;SDS011;24016;52.102;11.584;2024-02-21T00:58:08;15.13;;;5.60;;
38208;SDS011;24016;52.102;11.584;2024-02-21T01:00:34;17.30;;;5.97;;
38208;SDS011;24016;52.102;11.584;2024-02-21T01:02:59;19.75;;;6.18;;
38208;SDS011;24016;52.102;11.584;2024-02-21T01:05:25;20.17;;;6.10;;
38208;SDS011;24016;52.102;11.584;2024-02-21T01:07:52;16.10;;;6.03;;
38208;SDS011;24016;52.102;11.584;2024-02-21T01:10:17;17.17;;;6.72;;
38208;SDS011;24016;52.102;11.584;2024-02-21T01:12:43;16.30;;;6.90;;
38208;SDS011;24016;52.102;11.584;2024-02-21T01:15:08;13.43;;;6.60;;
38208;SDS011;24016;52.102;11.584;2024-02-21T01:17:35;22.08;;;6.75;;
38208;SDS011;24016;52.102;11.584;2024-02-21T01:20:00;16.58;;;6.20;;
38208;SDS011;24016;52.102;11.584;2024-02-21T01:22:26;20.90;;;7.03;;
38208;SDS011;24016;52.102;11.584;2024-02-21T01:24:51;23.42;;;6.55;;
38208;SDS011;24016;52.102;11.584;2024-02-21T01:27:17;24.20;;;6.78;;
38208;SDS011;24016;52.102;11.584;2024-02-21T01:29:42;18.90;;;7.45;;
38208;SDS011;24016;52.102;11.584;2024-02-21T01:32:08;20.08;;;6.80;;
38208;SDS011;24016;52.102;11.584;2024-02-21T01:34:33;21.05;;;7.25;;
38208;SDS011;24016;52.102;11.584;2024-02-21T01:36:59;18.30;;;7.30;;
38208;SDS011;24016;52.102;11.584;2024-02-21T01:39:29;24.92;;;7.65;;
38208;SDS011;24016;52.102;11.584;2024-02-21T01:41:54;17.33;;;7.47;;
38208;SDS011;24016;52.102;11.584;2024-02-21T01:44:20;21.10;;;7.80;;
38208;SDS011;24016;52.102;11.584;2024-02-21T01:46:45;23.15;;;7.63;;
38208;SDS011;24016;52.102;11.584;2024-02-21T01:49:11;24.00;;;7.78;;
38208;SDS011;24016;52.102;11.584;2024-02-21T01:51:36;22.05;;;8.00;;
38208;SDS011;24016;52.102;11.584;2024-02-21T01:54:02;23.95;;;7.57;;
38208;SDS011;24016;52.102;11.584;2024-02-21T01:56:28;24.10;;;7.60;;
38208;SDS011;24016;52.102;11.584;2024-02-21T01:58:54;20.50;;;7.43;;
38208;SDS011;24016;52.102;11.584;2024-02-21T02:01:20;20.85;;;7.80;;
38208;SDS011;24016;52.102;11.584;2024-02-21T02:03:46;18.55;;;7.47;;
38208;SDS011;24016;52.102;11.584;2024-02-21T02:06:12;25.85;;;8.63;;
38208;SDS011;24016;52.102;11.584;2024-02-21T02:08:37;28.27;;;7.95;;
38208;SDS011;24016;52.102;11.584;2024-02-21T02:11:03;19.08;;;7.85;;
38208;SDS011;24016;52.102;11.584;2024-02-21T02:13:29;20.15;;;8.32;;
38208;SDS011;24016;52.102;11.584;2024-02-21T02:15:54;18.40;;;7.63;;
38208;SDS011;24016;52.102;11.584;2024-02-21T02:18:20;23.33;;;8.23;;
38208;SDS011;24016;52.102;11.584;2024-02-21T02:20:45;21.50;;;8.40;;
38208;SDS011;24016;52.102;11.584;2024-02-21T02:25:44;24.73;;;9.43;;
38208;SDS011;24016;52.102;11.584;2024-02-21T02:28:14;23.10;;;8.90;;
38208;SDS011;24016;52.102;11.584;2024-02-21T02:33:15;20.88;;;9.13;;
38208;SDS011;24016;52.102;11.584;2024-02-21T02:35:44;20.88;;;8.93;;
38208;SDS011;24016;52.102;11.584;2024-02-21T02:38:10;21.45;;;8.93;;
38208;SDS011;24016;52.102;11.584;2024-02-21T02:40:37;21.90;;;9.93;;
38208;SDS011;24016;52.102;11.584;2024-02-21T02:43:03;21.45;;;8.60;;
38208;SDS011;24016;52.102;11.584;2024-02-21T02:45:29;25.95;;;10.15;;
38208;SDS011;24016;52.102;11.584;2024-02-21T02:47:55;21.10;;;9.18;;
38208;SDS011;24016;52.102;11.584;2024-02-21T02:50:22;22.15;;;9.55;;
38208;SDS011;24016;52.102;11.584;2024-02-21T02:52:48;24.15;;;9.43;;
38208;SDS011;24016;52.102;11.584;2024-02-21T02:55:14;21.67;;;8.95;;
38208;SDS011;24016;52.102;11.584;2024-02-21T02:57:40;22.00;;;9.70;;
38208;SDS011;24016;52.102;11.584;2024-02-21T03:00:08;25.02;;;10.27;;
38208;SDS011;24016;52.102;11.584;2024-02-21T03:02:35;26.65;;;9.77;;
38208;SDS011;24016;52.102;11.584;2024-02-21T03:05:03;20.55;;;9.50;;
38208;SDS011;24016;52.102;11.584;2024-02-21T03:07:38;26.73;;;9.77;;
38208;SDS011;24016;52.102;11.584;2024-02-21T03:10:04;26.58;;;10.35;;
38208;SDS011;24016;52.102;11.584;2024-02-21T03:12:30;27.00;;;10.27;;
38208;SDS011;24016;52.102;11.584;2024-02-21T03:14:55;23.23;;;10.05;;
38208;SDS011;24016;52.102;11.584;2024-02-21T03:17:21;29.13;;;11.43;;
38208;SDS011;24016;52.102;11.584;2024-02-21T03:19:47;25.98;;;10.07;;
38208;SDS011;24016;52.102;11.584;2024-02-21T03:22:14;25.52;;;10.98;;
38208;SDS011;24016;52.102;11.584;2024-02-21T03:24:41;22.58;;;11.63;;
38208;SDS011;24016;52.102;11.584;2024-02-21T03:27:07;28.75;;;12.02;;
38208;SDS011;24016;52.102;11.584;2024-02-21T03:29:33;27.02;;;12.20;;
38208;SDS011;24016;52.102;11.584;2024-02-21T03:31:58;28.02;;;12.90;;
38208;SDS011;24016;52.102;11.584;2024-02-21T03:34:24;32.35;;;12.02;;
38208;SDS011;24016;52.102;11.584;2024-02-21T03:36:49;38.15;;;13.52;;
38208;SDS011;24016;52.102;11.584;2024-02-21T03:39:15;27.75;;;12.10;;
38208;SDS011;24016;52.102;11.584;2024-02-21T03:41:40;30.15;;;13.20;;
38208;SDS011;24016;52.102;11.584;2024-02-21T03:44:06;25.77;;;12.15;;
38208;SDS011;24016;52.102;11.584;2024-02-21T03:46:31;26.40;;;11.77;;
38208;SDS011;24016;52.102;11.584;2024-02-21T03:48:57;28.20;;;12.13;;
38208;SDS011;24016;52.102;11.584;2024-02-21T03:51:22;26.83;;;11.77;;
38208;SDS011;24016;52.102;11.584;2024-02-21T03:53:49;20.58;;;11.18;;
38208;SDS011;24016;52.102;11.584;2024-02-21T03:56:14;26.98;;;11.15;;
38208;SDS011;24016;52.102;11.584;2024-02-21T03:58:40;22.83;;;10.88;;
38208;SDS011;24016;52.102;11.584;2024-02-21T04:01:05;23.35;;;12.27;;
38208;SDS011;24016;52.102;11.584;2024-02-21T04:03:31;26.42;;;11.30;;
38208;SDS011;24016;52.102;11.584;2024-02-21T04:05:56;29.40;;;11.75;;
38208;SDS011;24016;52.102;11.584;2024-02-21T04:08:22;23.98;;;10.50;;
38208;SDS011;24016;52.102;11.584;2024-02-21T04:10:48;22.10;;;11.27;;
38208;SDS011;24016;52.102;11.584;2024-02-21T04:13:14;23.95;;;10.40;;
38208;SDS011;24016;52.102;11.584;2024-02-21T04:15:39;27.63;;;11.15;;
38208;SDS011;24016;52.102;11.584;2024-02-21T04:18:05;23.88;;;11.40;;
38208;SDS011;24016;52.102;11.584;2024-02-21T04:20:31;20.30;;;9.93;;
38208;SDS011;24016;52.102;11.584;2024-02-21T04:22:57;16.10;;;10.13;;
38208;SDS011;24016;52.102;11.584;2024-02-21T04:25:23;16.63;;;9.43;;
38208;SDS011;24016;52.102;11.584;2024-02-21T04:27:49;21.35;;;9.23;;
38208;SDS011;24016;52.102;11.584;2024-02-21T04:30:14;15.93;;;8.35;;
38208;SDS011;24016;52.102;11.584;2024-02-21T04:32:40;17.58;;;9.63;;
38208;SDS011;24016;52.102;11.584;2024-02-21T04:35:06;17.48;;;8.52;;
38208;SDS011;24016;52.102;11.584;2024-02-21T04:37:33;17.25;;;8.00;;
38208;SDS011;24016;52.102;11.584;2024-02-21T04:39:58;17.15;;;8.70;;
38208;SDS011;24016;52.102;11.584;2024-02-21T04:42:24;16.40;;;8.77;;
38208;SDS011;24016;52.102;11.584;2024-02-21T04:44:49;18.90;;;9.00;;
38208;SDS011;24016;52.102;11.584;2024-02-21T04:47:15;13.95;;;8.13;;
38208;SDS011;24016;52.102;11.584;2024-02-21T04:49:41;13.27;;;8.40;;
38208;SDS011;24016;52.102;11.584;2024-02-21T04:52:06;19.88;;;9.07;;
38208;SDS011;24016;52.102;11.584;2024-02-21T04:54:32;18.45;;;9.77;;
38208;SDS011;24016;52.102;11.584;2024-02-21T04:56:57;17.63;;;9.55;;
38208;SDS011;24016;52.102;11.584;2024-02-21T04:59:23;15.07;;;8.98;;
38208;SDS011;24016;52.102;11.584;2024-02-21T05:01:48;17.65;;;9.38;;
38208;SDS011;24016;52.102;11.584;2024-02-21T05:04:15;19.33;;;8.70;;
38208;SDS011;24016;52.102;11.584;2024-02-21T05:06:41;18.15;;;9.52;;
38208;SDS011;24016;52.102;11.584;2024-02-21T05:09:07;18.65;;;9.10;;
38208;SDS011;24016;52.102;11.584;2024-02-21T05:11:36;15.02;;;9.15;;
38208;SDS011;24016;52.102;11.584;2024-02-21T05:14:02;13.60;;;8.55;;
38208;SDS011;24016;52.102;11.584;2024-02-21T05:16:28;16.40;;;10.05;;
38208;SDS011;24016;52.102;11.584;2024-02-21T05:18:54;16.30;;;9.50;;
38208;SDS011;24016;52.102;11.584;2024-02-21T05:21:21;14.23;;;8.52;;
38208;SDS011;24016;52.102;11.584;2024-02-21T05:23:48;15.15;;;9.43;;
38208;SDS011;24016;52.102;11.584;2024-02-21T05:26:20;16.30;;;8.82;;
38208;SDS011;24016;52.102;11.584;2024-02-21T05:28:54;17.20;;;8.43;;
38208;SDS011;24016;52.102;11.584;2024-02-21T05:31:20;16.92;;;8.27;;
38208;SDS011;24016;52.102;11.584;2024-02-21T05:33:46;13.13;;;7.85;;
38208;SDS011;24016;52.102;11.584;2024-02-21T05:36:12;15.63;;;7.70;;
38208;SDS011;24016;52.102;11.584;2024-02-21T05:38:41;14.65;;;7.32;;
38208;SDS011;24016;52.102;11.584;2024-02-21T05:41:08;14.10;;;7.80;;
38208;SDS011;24016;52.102;11.584;2024-02-21T05:43:33;14.50;;;7.85;;
38208;SDS011;24016;52.102;11.584;2024-02-21T05:45:59;15.88;;;8.07;;
38208;SDS011;24016;52.102;11.584;2024-02-21T05:48:24;15.95;;;8.60;;
38208;SDS011;24016;52.102;11.584;2024-02-21T05:50:50;13.32;;;9.00;;
38208;SDS011;24016;52.102;11.584;2024-02-21T05:56:13;18.15;;;9.68;;
38208;SDS011;24016;52.102;11.584;2024-02-21T05:58:39;17.33;;;9.32;;
38208;SDS011;24016;52.102;11.584;2024-02-21T06:01:05;19.00;;;9.95;;
38208;SDS011;24016;52.102;11.584;2024-02-21T06:03:34;17.35;;;10.05;;
38208;SDS011;24016;52.102;11.584;2024-02-21T06:06:01;18.83;;;10.20;;
38208;SDS011;24016;52.102;11.584;2024-02-21T06:08:27;16.83;;;9.35;;
38208;SDS011;24016;52.102;11.584;2024-02-21T06:10:52;15.20;;;9.52;;
38208;SDS011;24016;52.102;11.584;2024-02-21T06:13:19;16.75;;;9.73;;
38208;SDS011;24016;52.102;11.584;2024-02-21T06:15:46;16.48;;;10.32;;
38208;SDS011;24016;52.102;11.584;2024-02-21T06:18:12;16.48;;;9.95;;
38208;SDS011;24016;52.102;11.584;2024-02-21T06:20:37;21.95;;;10.68;;
38208;SDS011;24016;52.102;11.584;2024-02-21T06:23:05;16.80;;;10.45;;
38208;SDS011;24016;52.102;11.584;2024-02-21T06:25:31;19.33;;;10.45;;
38208;SDS011;24016;52.102;11.584;2024-02-21T06:27:56;17.48;;;10.30;;
38208;SDS011;24016;52.102;11.584;2024-02-21T06:30:22;17.60;;;8.60;;
38208;SDS011;24016;52.102;11.584;2024-02-21T06:32:47;14.98;;;8.73;;
38208;SDS011;24016;52.102;11.584;2024-02-21T06:35:13;19.15;;;8.65;;
38208;SDS011;24016;52.102;11.584;2024-02-21T06:37:39;16.35;;;9.20;;
38208;SDS011;24016;52.102;11.584;2024-02-21T06:40:04;16.83;;;9.18;;
38208;SDS011;24016;52.102;11.584;2024-02-21T06:42:30;15.98;;;9.13;;
38208;SDS011;24016;52.102;11.584;2024-02-21T06:44:56;16.80;;;8.45;;
38208;SDS011;24016;52.102;11.584;2024-02-21T06:47:22;14.85;;;8.88;;
38208;SDS011;24016;52.102;11.584;2024-02-21T06:49:50;15.45;;;8.77;;
38208;SDS011;24016;52.102;11.584;2024-02-21T06:52:19;16.92;;;9.00;;
38208;SDS011;24016;52.102;11.584;2024-02-21T06:54:48;22.45;;;10.73;;
38208;SDS011;24016;52.102;11.584;2024-02-21T06:57:14;16.63;;;9.40;;
38208;SDS011;24016;52.102;11.584;2024-02-21T06:59:43;13.05;;;9.02;;
38208;SDS011;24016;52.102;11.584;2024-02-21T07:02:08;13.80;;;9.00;;
38208;SDS011;24016;52.102;11.584;2024-02-21T07:04:34;14.80;;;8.52;;
38208;SDS011;24016;52.102;11.584;2024-02-21T07:06:59;16.80;;;9.00;;
38208;SDS011;24016;52.102;11.584;2024-02-21T07:09:25;16.10;;;8.23;;
38208;SDS011;24016;52.102;11.584;2024-02-21T07:11:51;15.63;;;8.40;;
38208;SDS011;24016;52.102;11.584;2024-02-21T07:14:18;13.07;;;8.00;;
38208;SDS011;24016;52.102;11.584;2024-02-21T07:16:43;17.30;;;8.05;;
38208;SDS011;24016;52.102;11.584;2024-02-21T07:19:09;14.38;;;7.90;;
38208;SDS011;24016;52.102;11.584;2024-02-21T07:21:34;12.60;;;7.72;;
38208;SDS011;24016;52.102;11.584;2024-02-21T07:24:02;16.10;;;7.63;;
38208;SDS011;24016;52.102;11.584;2024-02-21T07:26:29;15.68;;;7.40;;
38208;SDS011;24016;52.102;11.584;2024-02-21T07:28:56;11.23;;;7.35;;
38208;SDS011;24016;52.102;11.584;2024-02-21T07:31:21;14.50;;;7.05;;
38208;SDS011;24016;52.102;11.584;2024-02-21T07:33:47;12.27;;;7.57;;
38208;SDS011;24016;52.102;11.584;2024-02-21T07:36:14;12.07;;;6.72;;
38208;SDS011;24016;52.102;11.584;2024-02-21T07:38:40;12.35;;;7.43;;
38208;SDS011;24016;52.102;11.584;2024-02-21T07:41:06;17.50;;;7.60;;
38208;SDS011;24016;52.102;11.584;2024-02-21T07:43:32;12.85;;;6.97;;
38208;SDS011;24016;52.102;11.584;2024-02-21T07:45:57;12.02;;;6.88;;
38208;SDS011;24016;52.102;11.584;2024-02-21T07:48:23;14.23;;;6.97;;
38208;SDS011;24016;52.102;11.584;2024-02-21T07:50:50;10.45;;;5.72;;
38208;SDS011;24016;52.102;11.584;2024-02-21T07:53:16;12.93;;;6.15;;
38208;SDS011;24016;52.102;11.584;2024-02-21T07:55:41;13.13;;;5.93;;
38208;SDS011;24016;52.102;11.584;2024-02-21T07:58:07;11.90;;;6.32;;
38208;SDS011;24016;52.102;11.584;2024-02-21T08:00:32;11.50;;;6.57;;
38208;SDS011;24016;52.102;11.584;2024-02-21T08:02:58;13.05;;;7.15;;
38208;SDS011;24016;52.102;11.584;2024-02-21T08:05:23;10.43;;;6.03;;
38208;SDS011;24016;52.102;11.584;2024-02-21T08:07:49;12.18;;;6.15;;
38208;SDS011;24016;52.102;11.584;2024-02-21T08:10:15;12.27;;;5.65;;
38208;SDS011;24016;52.102;11.584;2024-02-21T08:12:40;11.88;;;6.38;;
38208;SDS011;24016;52.102;11.584;2024-02-21T08:15:06;8.90;;;5.30;;
38208;SDS011;24016;52.102;11.584;2024-02-21T08:17:36;12.07;;;6.40;;
38208;SDS011;24016;52.102;11.584;2024-02-21T08:20:02;11.00;;;6.57;;
38208;SDS011;24016;52.102;11.584;2024-02-21T08:22:29;12.13;;;6.28;;
38208;SDS011;24016;52.102;11.584;2024-02-21T08:24:55;14.38;;;6.03;;
38208;SDS011;24016;52.102;11.584;2024-02-21T08:27:20;12.40;;;6.13;;
38208;SDS011;24016;52.102;11.584;2024-02-21T08:29:46;13.27;;;6.63;;
38208;SDS011;24016;52.102;11.584;2024-02-21T08:32:11;11.30;;;6.35;;
38208;SDS011;24016;52.102;11.584;2024-02-21T08:34:37;13.00;;;6.50;;
38208;SDS011;24016;52.102;11.584;2024-02-21T08:37:03;14.48;;;5.55;;
38208;SDS011;24016;52.102;11.584;2024-02-21T08:39:28;8.98;;;6.00;;
38208;SDS011;24016;52.102;11.584;2024-02-21T08:41:55;11.45;;;5.57;;
38208;SDS011;24016;52.102;11.584;2024-02-21T08:44:24;13.02;;;6.00;;
38208;SDS011;24016;52.102;11.584;2024-02-21T08:46:53;10.95;;;5.75;;
38208;SDS011;24016;52.102;11.584;2024-02-21T08:49:18;15.98;;;5.82;;
38208;SDS011;24016;52.102;11.584;2024-02-21T08:51:44;12.32;;;6.22;;
38208;SDS011;24016;52.102;11.584;2024-02-21T08:54:11;11.80;;;5.72;;
38208;SDS011;24016;52.102;11.584;2024-02-21T08:56:37;14.70;;;6.00;;
38208;SDS011;24016;52.102;11.584;2024-02-21T08:59:02;10.73;;;5.32;;
38208;SDS011;24016;52.102;11.584;2024-02-21T09:01:29;8.40;;;5.32;;
38208;SDS011;24016;52.102;11.584;2024-02-21T09:03:54;8.57;;;4.90;;
38208;SDS011;24016;52.102;11.584;2024-02-21T09:06:21;10.77;;;5.32;;
38208;SDS011;24016;52.102;11.584;2024-02-21T09:08:47;9.00;;;4.90;;
38208;SDS011;24016;52.102;11.584;2024-02-21T09:11:13;11.80;;;5.43;;
38208;SDS011;24016;52.102;11.584;2024-02-21T09:13:38;12.55;;;5.22;;
38208;SDS011;24016;52.102;11.584;2024-02-21T09:16:04;9.70;;;5.03;;
38208;SDS011;24016;52.102;11.584;2024-02-21T09:18:30;9.18;;;5.30;;
38208;SDS011;24016;52.102;11.584;2024-02-21T09:20:56;11.10;;;5.60;;
38208;SDS011;24016;52.102;11.584;2024-02-21T09:23:23;11.82;;;5.20;;
38208;SDS011;24016;52.102;11.584;2024-02-21T09:25:49;9.25;;;5.25;;
38208;SDS011;24016;52.102;11.584;2024-02-21T09:28:15;7.88;;;4.63;;
38208;SDS011;24016;52.102;11.584;2024-02-21T09:30:40;9.45;;;5.35;;
38208;SDS011;24016;52.102;11.584;2024-02-21T09:33:06;11.88;;;4.97;;
38208;SDS011;24016;52.102;11.584;2024-02-21T09:35:31;9.77;;;5.00;;
38208;SDS011;24016;52.102;11.584;2024-02-21T09:37:58;7.30;;;4.47;;
38208;SDS011;24016;52.102;11.584;2024-02-21T09:40:24;10.25;;;5.05;;
38208;SDS011;24016;52.102;11.584;2024-02-21T09:42:50;13.05;;;5.70;;
38208;SDS011;24016;52.102;11.584;2024-02-21T09:45:28;8.52;;;4.70;;
38208;SDS011;24016;52.102;11.584;2024-02-21T09:50:41;9.77;;;4.55;;
38208;SDS011;24016;52.102;11.584;2024-02-21T09:53:08;7.40;;;4.57;;
38208;SDS011;24016;52.102;11.584;2024-02-21T09:55:36;8.02;;;4.35;;
38208;SDS011;24016;52.102;11.584;2024-02-21T09:58:05;11.00;;;4.72;;
38208;SDS011;24016;52.102;11.584;2024-02-21T10:00:31;8.18;;;4.15;;
38208;SDS011;24016;52.102;11.584;2024-02-21T10:02:56;10.27;;;4.32;;
38208;SDS011;24016;52.102;11.584;2024-02-21T10:05:23;9.43;;;3.92;;
38208;SDS011;24016;52.102;11.584;2024-02-21T10:07:50;7.47;;;3.17;;
38208;SDS011;24016;52.102;11.584;2024-02-21T10:10:17;6.22;;;3.10;;
38208;SDS011;24016;52.102;11.584;2024-02-21T10:12:52;7.22;;;3.75;;
38208;SDS011;24016;52.102;11.584;2024-02-21T10:15:21;8.15;;;3.50;;
38208;SDS011;24016;52.102;11.584;2024-02-21T10:17:48;5.70;;;3.00;;
38208;SDS011;24016;52.102;11.584;2024-02-21T10:20:14;5.10;;;2.95;;
38208;SDS011;24016;52.102;11.584;2024-02-21T10:22:41;7.25;;;3.65;;
38208;SDS011;24016;52.102;11.584;2024-02-21T10:25:07;9.40;;;3.63;;
38208;SDS011;24016;52.102;11.584;2024-02-21T10:27:36;5.22;;;3.00;;
38208;SDS011;24016;52.102;11.584;2024-02-21T10:30:04;7.85;;;3.45;;
38208;SDS011;24016;52.102;11.584;2024-02-21T10:32:30;6.68;;;3.30;;
38208;SDS011;24016;52.102;11.584;2024-02-21T10:35:02;6.35;;;2.88;;
38208;SDS011;24016;52.102;11.584;2024-02-21T10:37:29;4.68;;;2.60;;
38208;SDS011;24016;52.102;11.584;2024-02-21T10:39:55;6.60;;;3.20;;
38208;SDS011;24016;52.102;11.584;2024-02-21T10:42:21;5.28;;;2.50;;
38208;SDS011;24016;52.102;11.584;2024-02-21T10:44:48;6.55;;;2.75;;
38208;SDS011;24016;52.102;11.584;2024-02-21T10:47:19;7.38;;;2.92;;
38208;SDS011;24016;52.102;11.584;2024-02-21T10:49:49;6.93;;;2.80;;
38208;SDS011;24016;52.102;11.584;2024-02-21T10:52:32;6.38;;;2.95;;
38208;SDS011;24016;52.102;11.584;2024-02-21T10:55:13;4.78;;;2.75;;
38208;SDS011;24016;52.102;11.584;2024-02-21T10:57:51;4.67;;;2.57;;
38208;SDS011;24016;52.102;11.584;2024-02-21T11:00:17;8.20;;;3.15;;
38208;SDS011;24016;52.102;11.584;2024-02-21T11:02:44;5.80;;;3.17;;
38208;SDS011;24016;52.102;11.584;2024-02-21T11:05:10;5.97;;;3.10;;
38208;SDS011;24016;52.102;11.584;2024-02-21T11:07:37;6.72;;;3.55;;
38208;SDS011;24016;52.102;11.584;2024-02-21T11:10:03;7.85;;;3.20;;
38208;SDS011;24016;52.102;11.584;2024-02-21T11:12:32;7.28;;;3.15;;
38208;SDS011;24016;52.102;11.584;2024-02-21T11:15:05;7.03;;;3.55;;
38208;SDS011;24016;52.102;11.584;2024-02-21T11:17:31;8.25;;;3.25;;
38208;SDS011;24016;52.102;11.584;2024-02-21T11:19:56;8.52;;;3.35;;
38208;SDS011;24016;52.102;11.584;2024-02-21T11:22:24;7.68;;;3.50;;
38208;SDS011;24016;52.102;11.584;2024-02-21T11:24:54;7.70;;;3.58;;
38208;SDS011;24016;52.102;11.584;2024-02-21T11:27:21;7.68;;;3.75;;
38208;SDS011;24016;52.102;11.584;2024-02-21T11:29:57;10.32;;;3.78;;
38208;SDS011;24016;52.102;11.584;2024-02-21T11:32:23;6.68;;;3.25;;
38208;SDS011;24016;52.102;11.584;2024-02-21T11:34:56;7.28;;;3.53;;
38208;SDS011;24016;52.102;11.584;2024-02-21T11:37:26;7.78;;;3.50;;
38208;SDS011;24016;52.102;11.584;2024-02-21T11:39:54;7.55;;;3.65;;
38208;SDS011;24016;52.102;11.584;2024-02-21T11:42:20;6.53;;;3.58;;
38208;SDS011;24016;52.102;11.584;2024-02-21T11:44:45;10.10;;;3.90;;
38208;SDS011;24016;52.102;11.584;2024-02-21T11:47:11;7.82;;;3.53;;
38208;SDS011;24016;52.102;11.584;2024-02-21T11:49:43;9.18;;;3.67;;
38208;SDS011;24016;52.102;11.584;2024-02-21T11:52:14;7.68;;;3.88;;
38208;SDS011;24016;52.102;11.584;2024-02-21T11:54:45;7.53;;;3.72;;
38208;SDS011;24016;52.102;11.584;2024-02-21T11:57:11;8.80;;;3.83;;
38208;SDS011;24016;52.102;11.584;2024-02-21T11:59:36;10.40;;;3.80;;
38208;SDS011;24016;52.102;11.584;2024-02-21T12:02:02;8.10;;;3.63;;
38208;SDS011;24016;52.102;11.584;2024-02-21T12:04:28;8.13;;;3.25;;
38208;SDS011;24016;52.102;11.584;2024-02-21T12:06:56;7.25;;;3.53;;
38208;SDS011;24016;52.102;11.584;2024-02-21T12:09:23;10.27;;;3.65;;
38208;SDS011;24016;52.102;11.584;2024-02-21T12:11:59;7.72;;;3.78;;
38208;SDS011;24016;52.102;11.584;2024-02-21T12:14:34;9.15;;;3.63;;
38208;SDS011;24016;52.102;11.584;2024-02-21T12:17:01;8.73;;;4.13;;
38208;SDS011;24016;52.102;11.584;2024-02-21T12:19:29;8.68;;;4.38;;
38208;SDS011;24016;52.102;11.584;2024-02-21T12:21:56;6.78;;;3.95;;
38208;SDS011;24016;52.102;11.584;2024-02-21T12:24:26;7.25;;;3.83;;
38208;SDS011;24016;52.102;11.584;2024-02-21T12:26:53;6.05;;;3.35;;
38208;SDS011;24016;52.102;11.584;2024-02-21T12:29:20;7.60;;;3.33;;
38208;SDS011;24016;52.102;11.584;2024-02-21T12:31:46;8.18;;;3.30;;
38208;SDS011;24016;52.102;11.584;2024-02-21T12:34:12;6.80;;;3.35;;
38208;SDS011;24016;52.102;11.584;2024-02-21T12:36:41;8.00;;;3.78;;
38208;SDS011;24016;52.102;11.584;2024-02-21T12:39:08;11.85;;;3.58;;
38208;SDS011;24016;52.102;11.584;2024-02-21T12:41:34;11.27;;;3.80;;
38208;SDS011;24016;52.102;11.584;2024-02-21T12:44:03;8.00;;;3.75;;
38208;SDS011;24016;52.102;11.584;2024-02-21T12:46:29;11.60;;;4.28;;
38208;SDS011;24016;52.102;11.584;2024-02-21T12:48:55;6.85;;;3.20;;
38208;SDS011;24016;52.102;11.584;2024-02-21T12:51:20;7.93;;;3.85;;
38208;SDS011;24016;52.102;11.584;2024-02-21T12:53:49;7.65;;;3.67;;
38208;SDS011;24016;52.102;11.584;2024-02-21T12:56:15;7.30;;;3.10;;
38208;SDS011;24016;52.102;11.584;2024-02-21T12:58:40;6.68;;;3.58;;
38208;SDS011;24016;52.102;11.584;2024-02-21T13:01:06;6.82;;;3.35;;
38208;SDS011;24016;52.102;11.584;2024-02-21T13:03:32;5.53;;;3.20;;
38208;SDS011;24016;52.102;11.584;2024-02-21T13:05:57;8.70;;;3.45;;
38208;SDS011;24016;52.102;11.584;2024-02-21T13:08:24;6.53;;;3.15;;
38208;SDS011;24016;52.102;11.584;2024-02-21T13:10:50;7.78;;;2.90;;
38208;SDS011;24016;52.102;11.584;2024-02-21T13:13:15;7.70;;;3.35;;
38208;SDS011;24016;52.102;11.584;2024-02-21T13:15:41;5.57;;;2.70;;
38208;SDS011;24016;52.102;11.584;2024-02-21T13:18:08;7.97;;;3.05;;
38208;SDS011;24016;52.102;11.584;2024-02-21T13:20:34;6.35;;;2.67;;
38208;SDS011;24016;52.102;11.584;2024-02-21T13:23:00;5.90;;;3.33;;
38208;SDS011;24016;52.102;11.584;2024-02-21T13:25:25;9.07;;;2.92;;
38208;SDS011;24016;52.102;11.584;2024-02-21T13:27:51;7.70;;;3.20;;
38208;SDS011;24016;52.102;11.584;2024-02-21T13:30:16;6.72;;;3.30;;
38208;SDS011;24016;52.102;11.584;2024-02-21T13:32:43;9.20;;;3.20;;
38208;SDS011;24016;52.102;11.584;2024-02-21T13:35:11;9.60;;;3.03;;
38208;SDS011;24016;52.102;11.584;2024-02-21T13:37:37;6.50;;;2.83;;
38208;SDS011;24016;52.102;11.584;2024-02-21T13:40:03;8.60;;;2.92;;
38208;SDS011;24016;52.102;11.584;2024-02-21T13:42:29;7.03;;;2.63;;
38208;SDS011;24016;52.102;11.584;2024-02-21T13:44:54;5.68;;;2.45;;
38208;SDS011;24016;52.102;11.584;2024-02-21T13:47:20;4.55;;;2.40;;
38208;SDS011;24016;52.102;11.584;2024-02-21T13:49:46;6.55;;;3.05;;
38208;SDS011;24016;52.102;11.584;2024-02-21T13:52:12;4.57;;;2.25;;
38208;SDS011;24016;52.102;11.584;2024-02-21T13:54:38;5.70;;;2.90;;
38208;SDS011;24016;52.102;11.584;2024-02-21T13:57:03;4.57;;;2.28;;
38208;SDS011;24016;52.102;11.584;2024-02-21T13:59:29;7.25;;;2.75;;
38208;SDS011;24016;52.102;11.584;2024-02-21T14:01:55;8.25;;;2.30;;
38208;SDS011;24016;52.102;11.584;2024-02-21T14:04:23;4.63;;;2.50;;
38208;SDS011;24016;52.102;11.584;2024-02-21T14:06:49;6.45;;;2.45;;
38208;SDS011;24016;52.102;11.584;2024-02-21T14:09:15;5.63;;;2.40;;
38208;SDS011;24016;52.102;11.584;2024-02-21T14:11:40;6.53;;;2.55;;
38208;SDS011;24016;52.102;11.584;2024-02-21T14:14:07;6.38;;;2.60;;
38208;SDS011;24016;52.102;11.584;2024-02-21T14:16:33;7.50;;;2.38;;
38208;SDS011;24016;52.102;11.584;2024-02-21T14:18:58;5.20;;;2.50;;
38208;SDS011;24016;52.102;11.584;2024-02-21T14:21:24;7.82;;;2.17;;
38208;SDS011;24016;52.102;11.584;2024-02-21T14:23:50;5.82;;;2.80;;
38208;SDS011;24016;52.102;11.584;2024-02-21T14:26:17;10.40;;;2.60;;
38208;SDS011;24016;52.102;11.584;2024-02-21T14:28:43;6.10;;;2.67;;
38208;SDS011;24016;52.102;11.584;2024-02-21T14:31:09;4.65;;;2.05;;